createdAt,value
2023-04-17T00:01:01.442Z,72.67
2023-04-17T00:03:32.804Z,72.90
2023-04-17T00:06:03.769Z,72.82
2023-04-17T00:08:33.836Z,72.91
2023-04-17T00:11:07.828Z,73.01
2023-04-17T00:13:38.000Z,73.39
2023-04-17T00:16:06.503Z,73.77
2023-04-17T00:18:35.432Z,74.18
2023-04-17T00:21:04.443Z,74.46
2023-04-17T00:23:35.555Z,74.44
2023-04-17T00:26:02.971Z,74.53
2023-04-17T00:28:32.011Z,74.58
2023-04-17T00:31:01.417Z,74.60
2023-04-17T00:33:30.563Z,74.68
2023-04-17T00:36:01.137Z,74.64
2023-04-17T00:38:33.314Z,74.59
2023-04-17T00:41:03.266Z,74.46
2023-04-17T00:43:32.539Z,74.63
2023-04-17T00:46:01.814Z,74.61
2023-04-17T00:48:32.899Z,74.75
2023-04-17T00:51:04.704Z,74.63
2023-04-17T00:53:34.966Z,74.73
2023-04-17T00:56:06.486Z,74.77
2023-04-17T00:58:37.281Z,74.64
2023-04-17T01:01:06.842Z,74.66
2023-04-17T01:03:35.790Z,74.60
2023-04-17T01:06:05.284Z,74.76
2023-04-17T01:08:46.086Z,74.40
2023-04-17T01:11:16.105Z,74.66
2023-04-17T01:13:55.537Z,74.40
2023-04-17T01:16:25.658Z,74.59
2023-04-17T01:18:55.701Z,74.66
2023-04-17T01:21:27.213Z,74.44
2023-04-17T01:23:57.942Z,74.70
2023-04-17T01:26:27.912Z,74.37
2023-04-17T01:29:01.172Z,74.64
2023-04-17T01:31:31.015Z,74.45
2023-04-17T01:34:01.632Z,74.57
2023-04-17T01:36:29.852Z,74.55
2023-04-17T01:39:00.161Z,74.69
2023-04-17T01:41:28.295Z,74.34
2023-04-17T01:43:56.612Z,74.47
2023-04-17T01:46:24.647Z,74.62
2023-04-17T01:48:53.615Z,74.57
2023-04-17T01:51:21.211Z,74.69
2023-04-17T01:53:50.924Z,74.55
2023-04-17T01:56:19.402Z,74.46
2023-04-17T01:58:48.392Z,74.59
2023-04-17T02:01:17.134Z,74.53
2023-04-17T02:03:45.914Z,74.30
2023-04-17T02:06:15.623Z,74.57
2023-04-17T02:08:44.084Z,74.47
2023-04-17T02:11:14.283Z,74.48
2023-04-17T02:13:41.984Z,74.37
2023-04-17T02:16:10.158Z,74.16
2023-04-17T02:18:38.092Z,74.09
2023-04-17T02:21:06.417Z,74.10
2023-04-17T02:23:35.129Z,73.80
2023-04-17T02:26:02.894Z,73.81
2023-04-17T02:28:30.422Z,73.88
2023-04-17T02:30:58.834Z,73.78
2023-04-17T02:33:27.957Z,73.39
2023-04-17T02:35:57.463Z,73.63
2023-04-17T02:38:25.689Z,73.42
2023-04-17T02:40:54.322Z,73.42
2023-04-17T02:43:23.143Z,73.37
2023-04-17T02:45:51.460Z,73.31
2023-04-17T02:48:19.743Z,73.21
2023-04-17T02:50:47.695Z,73.39
2023-04-17T02:53:16.024Z,73.53
2023-04-17T02:55:44.095Z,73.44
2023-04-17T02:58:12.241Z,73.51
2023-04-17T03:00:40.497Z,73.39
2023-04-17T03:03:08.922Z,73.35
2023-04-17T03:05:37.372Z,73.63
2023-04-17T03:08:07.070Z,74.00
2023-04-17T03:10:35.983Z,73.93
2023-04-17T03:13:06.306Z,74.01
2023-04-17T03:15:34.375Z,74.12
2023-04-17T03:18:02.900Z,74.24
2023-04-17T03:20:31.145Z,74.39
2023-04-17T03:23:00.772Z,74.36
2023-04-17T03:25:30.873Z,74.42
2023-04-17T03:27:58.901Z,74.27
2023-04-17T03:30:28.163Z,74.51
2023-04-17T03:32:57.412Z,74.24
2023-04-17T03:35:26.256Z,74.38
2023-04-17T03:37:54.606Z,74.14
2023-04-17T03:40:23.099Z,74.31
2023-04-17T03:42:52.092Z,74.38
2023-04-17T03:45:19.023Z,74.64
2023-04-17T03:47:49.310Z,74.70
2023-04-17T03:50:16.754Z,74.59
2023-04-17T03:52:44.504Z,74.67
2023-04-17T03:55:12.075Z,74.67
2023-04-17T03:57:39.138Z,74.68
2023-04-17T04:00:11.835Z,74.44
2023-04-17T04:02:41.200Z,74.52
2023-04-17T04:05:08.744Z,74.78
2023-04-17T04:07:36.536Z,74.67
2023-04-17T04:10:05.000Z,74.70
2023-04-17T04:12:32.554Z,74.75
2023-04-17T04:14:59.901Z,74.67
2023-04-17T04:17:27.749Z,74.61
2023-04-17T04:19:56.404Z,74.43
2023-04-17T04:22:25.050Z,74.64
2023-04-17T04:24:55.376Z,74.65
2023-04-17T04:27:23.526Z,74.51
2023-04-17T04:29:51.731Z,74.65
2023-04-17T04:32:18.627Z,74.49
2023-04-17T04:34:45.929Z,74.58
2023-04-17T04:37:15.957Z,74.57
2023-04-17T04:39:44.127Z,74.36
2023-04-17T04:42:11.686Z,74.60
2023-04-17T04:44:39.477Z,74.49
2023-04-17T04:47:07.051Z,74.65
2023-04-17T04:49:35.378Z,74.69
2023-04-17T04:52:02.022Z,74.65
2023-04-17T04:54:29.081Z,74.86
2023-04-17T04:56:56.978Z,74.91
2023-04-17T04:59:23.684Z,75.10
2023-04-17T05:01:50.644Z,75.31
2023-04-17T05:04:17.397Z,75.28
2023-04-17T05:06:44.056Z,75.38
2023-04-17T05:09:10.944Z,75.49
2023-04-17T05:11:37.857Z,75.36
2023-04-17T05:14:04.540Z,75.75
2023-04-17T05:16:31.293Z,75.75
2023-04-17T05:18:58.024Z,75.93
2023-04-17T05:21:24.958Z,75.71
2023-04-17T05:23:51.565Z,75.88
2023-04-17T05:26:18.298Z,76.14
2023-04-17T05:28:45.449Z,76.06
2023-04-17T05:31:12.414Z,76.05
2023-04-17T05:33:39.168Z,76.33
2023-04-17T05:36:06.633Z,76.20
2023-04-17T05:38:33.471Z,76.24
2023-04-17T05:41:01.813Z,76.36
2023-04-17T05:43:28.712Z,76.59
2023-04-17T05:45:55.681Z,76.55
2023-04-17T05:48:23.054Z,76.53
2023-04-17T05:50:49.823Z,76.62
2023-04-17T05:53:16.939Z,76.76
2023-04-17T05:55:43.691Z,76.82
2023-04-17T05:58:23.298Z,76.66
2023-04-17T06:00:51.870Z,76.83
2023-04-17T06:03:19.306Z,77.00
2023-04-17T06:05:47.253Z,77.03
2023-04-17T06:08:14.089Z,76.89
2023-04-17T06:10:41.014Z,77.06
2023-04-17T06:13:07.673Z,76.91
2023-04-17T06:15:34.512Z,77.11
2023-04-17T06:18:01.569Z,77.12
2023-04-17T06:20:28.375Z,77.20
2023-04-17T06:22:55.000Z,77.15
2023-04-17T06:25:21.861Z,77.14
2023-04-17T06:27:48.746Z,77.26
2023-04-17T06:30:15.572Z,77.24
2023-04-17T06:32:43.433Z,77.58
2023-04-17T06:35:13.217Z,77.42
2023-04-17T06:37:39.881Z,77.16
2023-04-17T06:40:07.237Z,76.82
2023-04-17T06:42:35.511Z,76.51
2023-04-17T06:45:02.248Z,75.91
2023-04-17T06:47:29.200Z,76.10
2023-04-17T06:49:57.964Z,76.08
2023-04-17T06:52:25.031Z,76.09
2023-04-17T06:54:54.929Z,75.53
2023-04-17T06:57:22.240Z,75.10
2023-04-17T06:59:49.312Z,74.50
2023-04-17T07:02:16.633Z,73.81
2023-04-17T07:04:43.521Z,73.05
2023-04-17T07:07:11.233Z,72.51
2023-04-17T07:09:38.032Z,72.04
2023-04-17T07:12:04.961Z,71.61
2023-04-17T07:14:32.168Z,70.41
2023-04-17T07:16:59.594Z,69.47
2023-04-17T07:19:26.240Z,69.09
2023-04-17T07:21:53.313Z,68.63
2023-04-17T07:24:20.211Z,68.19
2023-04-17T07:26:46.937Z,67.39
2023-04-17T07:29:14.170Z,66.43
2023-04-17T07:31:41.227Z,65.33
2023-04-17T07:34:07.979Z,64.55
2023-04-17T07:36:35.109Z,63.94
2023-04-17T07:39:01.982Z,63.42
2023-04-17T07:41:28.690Z,62.70
2023-04-17T07:43:58.466Z,62.34
2023-04-17T07:46:26.225Z,61.87
2023-04-17T07:48:52.825Z,61.39
2023-04-17T07:51:19.827Z,60.92
2023-04-17T07:53:46.750Z,60.50
2023-04-17T07:56:13.417Z,60.02
2023-04-17T07:58:40.665Z,59.20
2023-04-17T08:01:07.300Z,58.70
2023-04-17T08:03:34.412Z,58.84
2023-04-17T08:06:01.439Z,58.39
2023-04-17T08:08:28.270Z,57.53
2023-04-17T08:10:54.995Z,56.71
2023-04-17T08:13:21.800Z,56.65
2023-04-17T08:15:48.545Z,56.20
2023-04-17T08:18:15.230Z,55.27
2023-04-17T08:20:41.943Z,54.51
2023-04-17T08:23:08.624Z,54.45
2023-04-17T08:25:35.513Z,53.60
2023-04-17T08:28:02.314Z,53.01
2023-04-17T08:30:29.325Z,53.11
2023-04-17T08:32:57.583Z,52.87
2023-04-17T08:35:25.320Z,52.93
2023-04-17T08:37:52.092Z,52.49
2023-04-17T08:40:21.522Z,51.72
2023-04-17T08:42:49.709Z,51.98
2023-04-17T08:45:16.594Z,51.62
2023-04-17T08:47:43.688Z,51.39
2023-04-17T08:50:15.161Z,51.18
2023-04-17T08:52:50.069Z,51.10
2023-04-17T08:55:19.408Z,51.37
2023-04-17T08:57:59.709Z,50.91
2023-04-17T09:00:28.812Z,50.50
2023-04-17T09:02:57.583Z,50.35
2023-04-17T09:05:26.072Z,50.26
2023-04-17T09:08:13.004Z,50.37
2023-04-17T09:10:46.534Z,51.12
2023-04-17T09:13:16.549Z,50.94
2023-04-17T09:15:44.668Z,50.85
2023-04-17T09:18:30.476Z,50.30
2023-04-17T09:20:59.801Z,49.98
2023-04-17T09:23:27.780Z,49.09
2023-04-17T09:26:08.145Z,48.96
2023-04-17T09:28:39.760Z,49.39
2023-04-17T09:31:27.757Z,48.99
2023-04-17T09:33:57.888Z,48.92
2023-04-17T09:36:25.010Z,48.93
2023-04-17T09:38:51.790Z,48.67
2023-04-17T09:41:32.405Z,48.75
2023-04-17T09:44:10.406Z,48.86
2023-04-17T09:46:47.763Z,49.18
2023-04-17T09:49:34.584Z,49.33
2023-04-17T09:52:01.924Z,49.21
2023-04-17T09:54:31.657Z,49.53
2023-04-17T09:56:59.254Z,49.92
2023-04-17T09:59:26.415Z,50.20
2023-04-17T10:01:54.510Z,50.48
2023-04-17T10:04:22.486Z,50.27
2023-04-17T10:06:52.611Z,49.77
2023-04-17T10:09:19.627Z,49.62
2023-04-17T10:11:48.036Z,49.91
2023-04-17T10:14:30.848Z,49.86
2023-04-17T10:16:57.583Z,49.91
2023-04-17T10:19:31.477Z,49.75
2023-04-17T10:22:18.154Z,49.37
2023-04-17T10:25:11.573Z,49.18
2023-04-17T10:27:38.940Z,48.88
2023-04-17T10:30:12.087Z,48.77
2023-04-17T10:32:40.823Z,48.92
2023-04-17T10:35:27.876Z,48.62
2023-04-17T10:38:06.823Z,48.13
2023-04-17T10:40:35.879Z,47.90
2023-04-17T10:43:18.092Z,47.24
2023-04-17T10:46:00.280Z,47.11
2023-04-17T10:48:38.342Z,46.83
2023-04-17T10:51:27.927Z,46.80
2023-04-17T10:53:54.521Z,46.66
2023-04-17T10:56:30.985Z,46.43
2023-04-17T10:59:05.693Z,46.62
2023-04-17T11:01:37.976Z,46.63
2023-04-17T11:04:06.571Z,46.65
2023-04-17T11:06:38.235Z,46.63
2023-04-17T11:09:08.720Z,46.64
2023-04-17T11:11:44.053Z,46.42
2023-04-17T11:14:17.218Z,46.11
2023-04-17T11:16:46.552Z,45.81
2023-04-17T11:19:21.684Z,46.15
2023-04-17T11:21:50.334Z,46.33
2023-04-17T11:24:31.374Z,46.50
2023-04-17T11:27:00.016Z,46.62
2023-04-17T11:29:27.995Z,46.41
2023-04-17T11:31:56.874Z,46.15
2023-04-17T11:34:26.712Z,46.13
2023-04-17T11:36:56.406Z,45.95
2023-04-17T11:39:34.608Z,46.07
2023-04-17T11:42:05.198Z,46.16
2023-04-17T11:44:31.926Z,46.33
2023-04-17T11:46:59.285Z,46.30
2023-04-17T11:49:27.555Z,46.24
2023-04-17T11:51:55.385Z,46.25
2023-04-17T11:54:30.091Z,46.54
2023-04-17T11:57:04.655Z,46.34
2023-04-17T11:59:37.441Z,46.65
2023-04-17T12:02:07.234Z,46.34
2023-04-17T12:04:35.680Z,46.43
2023-04-17T12:07:04.115Z,46.20
2023-04-17T12:09:31.918Z,46.61
2023-04-17T12:11:59.778Z,46.72
2023-04-17T12:14:26.862Z,46.51
2023-04-17T12:16:53.637Z,46.44
2023-04-17T12:19:20.461Z,46.23
2023-04-17T12:21:50.181Z,46.26
2023-04-17T12:24:18.227Z,46.05
2023-04-17T12:26:49.342Z,45.53
2023-04-17T12:29:17.792Z,45.46
2023-04-17T12:31:45.773Z,45.17
2023-04-17T12:34:13.030Z,44.86
2023-04-17T12:36:40.062Z,44.78
2023-04-17T12:39:09.302Z,44.64
2023-04-17T12:41:36.178Z,44.78
2023-04-17T12:44:03.650Z,44.37
2023-04-17T12:46:30.970Z,44.39
2023-04-17T12:48:59.345Z,44.47
2023-04-17T12:51:29.795Z,45.03
2023-04-17T12:53:56.813Z,44.82
2023-04-17T12:56:24.083Z,44.15
2023-04-17T12:58:51.189Z,43.82
2023-04-17T13:01:17.874Z,43.27
2023-04-17T13:03:44.856Z,42.48
2023-04-17T13:06:12.372Z,42.58
2023-04-17T13:08:39.223Z,42.29
2023-04-17T13:11:06.111Z,41.94
2023-04-17T13:13:32.793Z,41.62
2023-04-17T13:15:59.430Z,41.90
2023-04-17T13:18:26.495Z,42.70
2023-04-17T13:20:53.208Z,43.11
2023-04-17T13:23:20.005Z,43.96
2023-04-17T13:25:47.255Z,44.19
2023-04-17T13:28:14.068Z,44.68
2023-04-17T13:30:40.789Z,44.58
2023-04-17T13:33:08.061Z,44.58
2023-04-17T13:35:35.030Z,44.34
2023-04-17T13:38:03.124Z,44.28
2023-04-17T13:40:31.116Z,44.21
2023-04-17T13:42:58.618Z,44.21
2023-04-17T13:45:25.588Z,44.54
2023-04-17T13:47:52.803Z,44.77
2023-04-17T13:50:19.748Z,44.66
2023-04-17T13:52:46.384Z,44.71
2023-04-17T13:55:14.704Z,44.88
2023-04-17T13:57:41.662Z,44.23
2023-04-17T14:00:08.999Z,44.21
2023-04-17T14:02:36.154Z,43.90
2023-04-17T14:05:03.162Z,43.96
2023-04-17T14:07:30.143Z,43.67
2023-04-17T14:09:56.844Z,44.15
2023-04-17T14:12:23.674Z,44.06
2023-04-17T14:14:50.332Z,44.15
2023-04-17T14:17:17.458Z,43.93
2023-04-17T14:19:44.398Z,43.92
2023-04-17T14:22:11.110Z,43.83
2023-04-17T14:24:37.848Z,44.16
2023-04-17T14:27:04.797Z,44.01
2023-04-17T14:29:31.431Z,44.14
2023-04-17T14:31:58.157Z,44.02
2023-04-17T14:34:25.048Z,44.02
2023-04-17T14:36:51.681Z,43.89
2023-04-17T14:39:19.766Z,43.76
2023-04-17T14:41:46.807Z,43.63
2023-04-17T14:44:13.726Z,43.57
2023-04-17T14:46:40.754Z,43.38
2023-04-17T14:49:08.222Z,43.44
2023-04-17T14:51:34.928Z,43.54
2023-04-17T14:54:01.694Z,43.58
2023-04-17T14:56:28.518Z,44.32
2023-04-17T14:58:55.274Z,44.92
2023-04-17T15:01:22.183Z,45.51
2023-04-17T15:03:49.103Z,46.23
2023-04-17T15:06:16.809Z,46.58
2023-04-17T15:08:43.860Z,46.82
2023-04-17T15:11:10.547Z,47.03
2023-04-17T15:13:37.365Z,47.07
2023-04-17T15:16:04.371Z,46.93
2023-04-17T15:18:31.409Z,47.00
2023-04-17T15:20:58.493Z,47.06
2023-04-17T15:23:26.636Z,47.08
2023-04-17T15:25:57.723Z,46.96
2023-04-17T15:28:25.345Z,47.24
2023-04-17T15:30:52.045Z,47.24
2023-04-17T15:33:18.943Z,47.18
2023-04-17T15:35:45.664Z,47.27
2023-04-17T15:38:12.519Z,47.41
2023-04-17T15:40:39.203Z,47.35
2023-04-17T15:43:05.852Z,47.36
2023-04-17T15:45:32.459Z,47.53
2023-04-17T15:48:05.321Z,47.59
2023-04-17T15:50:32.249Z,47.77
2023-04-17T15:52:58.877Z,47.96
2023-04-17T15:55:25.571Z,47.95
2023-04-17T15:57:52.387Z,48.09
2023-04-17T16:00:19.555Z,48.42
2023-04-17T16:02:48.075Z,48.77
2023-04-17T16:05:16.038Z,48.98
2023-04-17T16:07:42.815Z,49.31
2023-04-17T16:10:14.011Z,49.76
2023-04-17T16:12:41.624Z,49.49
2023-04-17T16:15:08.874Z,49.87
2023-04-17T16:17:35.761Z,50.06
2023-04-17T16:20:04.228Z,50.33
2023-04-17T16:22:31.749Z,50.47
2023-04-17T16:24:58.747Z,50.58
2023-04-17T16:27:29.397Z,50.78
2023-04-17T16:29:56.294Z,50.94
2023-04-17T16:32:25.213Z,51.06
2023-04-17T16:34:52.872Z,51.20
2023-04-17T16:37:19.710Z,51.23
2023-04-17T16:39:47.284Z,51.16
2023-04-17T16:42:14.587Z,51.46
2023-04-17T16:44:41.264Z,51.33
2023-04-17T16:47:13.406Z,51.54
2023-04-17T16:49:41.691Z,51.47
2023-04-17T16:52:08.778Z,51.53
2023-04-17T16:54:35.620Z,51.62
2023-04-17T16:57:02.534Z,51.73
2023-04-17T16:59:30.711Z,51.60
2023-04-17T17:01:57.946Z,51.82
2023-04-17T17:04:25.787Z,51.99
2023-04-17T17:06:52.801Z,51.90
2023-04-17T17:09:20.521Z,51.98
2023-04-17T17:11:47.630Z,52.02
2023-04-17T17:14:16.138Z,51.73
2023-04-17T17:16:42.895Z,52.03
2023-04-17T17:19:09.678Z,52.07
2023-04-17T17:21:37.044Z,51.87
2023-04-17T17:24:04.032Z,51.96
2023-04-17T17:26:30.956Z,51.90
2023-04-17T17:28:57.600Z,52.08
2023-04-17T17:31:24.286Z,51.81
2023-04-17T17:33:52.876Z,51.90
2023-04-17T17:36:20.260Z,52.10
2023-04-17T17:38:46.929Z,52.02
2023-04-17T17:41:14.555Z,52.08
2023-04-17T17:43:41.233Z,52.21
2023-04-17T17:46:07.981Z,52.28
2023-04-17T17:48:35.705Z,52.30
2023-04-17T17:51:02.388Z,52.73
2023-04-17T17:53:29.011Z,52.60
2023-04-17T17:55:56.691Z,52.63
2023-04-17T17:58:23.504Z,52.55
2023-04-17T18:00:50.947Z,52.60
2023-04-17T18:03:18.030Z,52.43
2023-04-17T18:05:46.564Z,52.38
2023-04-17T18:08:14.478Z,52.40
2023-04-17T18:10:41.235Z,52.54
2023-04-17T18:13:08.040Z,52.32
2023-04-17T18:15:36.367Z,52.16
2023-04-17T18:18:03.440Z,52.16
2023-04-17T18:20:30.220Z,52.40
2023-04-17T18:22:59.185Z,52.59
2023-04-17T18:25:26.248Z,52.54
2023-04-17T18:27:53.191Z,52.51
2023-04-17T18:30:19.994Z,52.50
2023-04-17T18:32:46.804Z,52.81
2023-04-17T18:35:13.566Z,52.79
2023-04-17T18:37:40.358Z,52.97
2023-04-17T18:40:10.737Z,53.16
2023-04-17T18:42:39.412Z,53.01
2023-04-17T18:45:08.043Z,53.30
2023-04-17T18:47:36.482Z,53.37
2023-04-17T18:50:04.498Z,53.38
2023-04-17T18:52:31.197Z,53.55
2023-04-17T18:55:00.607Z,53.25
2023-04-17T18:57:29.598Z,53.34
2023-04-17T18:59:57.132Z,53.32
2023-04-17T19:02:45.719Z,53.40
2023-04-17T19:05:12.803Z,53.29
2023-04-17T19:07:42.349Z,53.15
2023-04-17T19:10:09.662Z,53.06
2023-04-17T19:12:36.374Z,53.19
2023-04-17T19:15:04.316Z,53.17
2023-04-17T19:17:32.305Z,53.27
2023-04-17T19:20:00.239Z,53.32
2023-04-17T19:22:27.799Z,53.62
2023-04-17T19:24:54.801Z,53.56
2023-04-17T19:27:22.823Z,53.72
2023-04-17T19:29:49.437Z,53.68
2023-04-17T19:32:16.811Z,53.71
2023-04-17T19:34:44.399Z,53.86
2023-04-17T19:37:11.146Z,53.89
2023-04-17T19:39:37.860Z,53.79
2023-04-17T19:42:04.639Z,53.85
2023-04-17T19:44:31.332Z,53.91
2023-04-17T19:46:58.222Z,53.74
2023-04-17T19:49:25.174Z,53.86
2023-04-17T19:51:51.852Z,53.65
2023-04-17T19:54:18.497Z,53.63
2023-04-17T19:56:45.496Z,53.26
2023-04-17T19:59:16.098Z,53.21
2023-04-17T20:01:44.529Z,53.13
2023-04-17T20:04:11.452Z,52.90
2023-04-17T20:06:39.571Z,52.80
2023-04-17T20:09:06.360Z,52.82
2023-04-17T20:11:33.159Z,52.80
2023-04-17T20:13:59.743Z,52.86
2023-04-17T20:16:26.668Z,53.04
2023-04-17T20:18:53.494Z,52.80
2023-04-17T20:21:20.167Z,53.18
2023-04-17T20:23:47.787Z,53.26
2023-04-17T20:26:14.915Z,53.36
2023-04-17T20:28:42.030Z,53.34
2023-04-17T20:31:08.926Z,53.59
2023-04-17T20:33:35.722Z,53.50
2023-04-17T20:36:02.621Z,53.81
2023-04-17T20:38:29.282Z,54.22
2023-04-17T20:40:56.308Z,54.08
2023-04-17T20:43:22.896Z,54.38
2023-04-17T20:45:50.172Z,54.76
2023-04-17T20:48:17.001Z,55.06
2023-04-17T20:50:43.729Z,55.42
2023-04-17T20:53:10.583Z,55.32
2023-04-17T20:55:38.505Z,55.50
2023-04-17T20:58:05.473Z,55.84
2023-04-17T21:00:32.692Z,56.17
2023-04-17T21:02:59.474Z,56.45
2023-04-17T21:05:26.905Z,56.61
2023-04-17T21:07:54.735Z,56.91
2023-04-17T21:10:21.424Z,57.29
2023-04-17T21:12:48.067Z,57.41
2023-04-17T21:15:15.235Z,57.68
2023-04-17T21:17:46.797Z,57.87
2023-04-17T21:20:14.018Z,58.17
2023-04-17T21:22:40.863Z,58.28
2023-04-17T21:25:08.098Z,58.37
2023-04-17T21:27:34.790Z,58.46
2023-04-17T21:30:02.050Z,58.82
2023-04-17T21:32:28.956Z,58.87
2023-04-17T21:34:55.798Z,59.17
2023-04-17T21:37:22.455Z,59.17
2023-04-17T21:39:49.204Z,59.34
2023-04-17T21:42:17.195Z,59.33
2023-04-17T21:44:43.893Z,59.21
2023-04-17T21:47:10.698Z,59.49
2023-04-17T21:49:37.414Z,59.87
2023-04-17T21:52:04.016Z,59.94
2023-04-17T21:54:30.946Z,59.91
2023-04-17T21:56:57.583Z,59.95
2023-04-17T21:59:24.407Z,60.30
2023-04-17T22:01:51.468Z,60.63
2023-04-17T22:04:18.367Z,60.57
2023-04-17T22:06:45.323Z,60.61
2023-04-17T22:09:12.283Z,60.40
2023-04-17T22:11:39.562Z,60.56
2023-04-17T22:14:08.068Z,60.64
2023-04-17T22:16:36.107Z,61.03
2023-04-17T22:19:03.683Z,61.00
2023-04-17T22:21:35.443Z,61.03
2023-04-17T22:24:03.416Z,61.16
2023-04-17T22:26:32.126Z,61.22
2023-04-17T22:29:00.185Z,61.29
2023-04-17T22:31:29.119Z,61.46
2023-04-17T22:33:55.984Z,61.53
2023-04-17T22:36:23.068Z,61.54
2023-04-17T22:38:49.836Z,61.56
2023-04-17T22:41:16.761Z,61.59
2023-04-17T22:43:43.389Z,61.52
2023-04-17T22:46:10.110Z,61.64
2023-04-17T22:48:36.839Z,61.42
2023-04-17T22:51:03.844Z,61.21
2023-04-17T22:53:33.548Z,60.94
2023-04-17T22:56:04.759Z,60.67
2023-04-17T22:58:33.020Z,60.55
2023-04-17T23:01:00.547Z,60.25
2023-04-17T23:03:27.305Z,59.70
2023-04-17T23:05:54.626Z,59.45
2023-04-17T23:08:21.645Z,59.06
2023-04-17T23:11:01.918Z,58.52
2023-04-17T23:13:29.304Z,58.14
2023-04-17T23:15:56.159Z,57.84
2023-04-17T23:18:22.951Z,57.45
2023-04-17T23:20:50.023Z,57.29
2023-04-17T23:23:18.546Z,57.18
2023-04-17T23:25:45.432Z,56.80
2023-04-17T23:28:12.290Z,56.53
2023-04-17T23:30:39.039Z,55.98
2023-04-17T23:33:06.116Z,55.46
2023-04-17T23:35:32.821Z,55.04
2023-04-17T23:37:59.416Z,54.92
2023-04-17T23:40:27.609Z,54.56
2023-04-17T23:42:54.922Z,54.45
2023-04-17T23:45:21.519Z,54.28
2023-04-17T23:47:48.345Z,54.29
2023-04-17T23:50:15.224Z,54.01
2023-04-17T23:52:41.896Z,53.80
2023-04-17T23:55:08.829Z,53.77
2023-04-17T23:57:37.800Z,53.96
